Estació municipal de St. Julià de Vilatorta (Osona, E.N.Guilleries-Savassona)

Consulta les dades en temps real de l'estació municipal de St. Julià de Vilatorta





Hora UTC 07:30
Temperatura 21.3 ºC
Subsòl 10 cm 20.0 ºC
Humitat 57.3 %
Pressió 1019.0 hPa
Pluja 0.0 mm
Velocitat vent 2.1 km/h
Direcció vent NNW
Radiació solar 346.4 W/m²
Fuel 7.8 %

Webcam

Dades diàries 2026-08-31



Hora UTC (hivern +1h; estiu +2h)
Temperatura (ºC) Humitat (%) Pressió (hPa) Velocitat vent (km/h) Precipitació (mm) Fuel (%) Radiació solar (W/m²)
Hora UTC Aire Subsòl 10 cm Humitat Pressió Vel. Dir. Vel. Max Dir. Intent. màx 5 min. Fuel Rad. Sol.
00:05 16.3 12.7 66.0 1017.9 2.6 E 2.6 E 0.0 5.6 0.5
00:10 16.3 12.5 66.4 1017.9 2.8 ESE 5.4 ESE 0.0 5.6 0.7
00:15 16.2 12.4 67.4 1017.8 1.6 SSE 3.4 SE 0.0 5.7 0.5
00:20 16.0 12.4 68.4 1017.8 2.8 SE 4.6 SE 0.0 5.7 0.5
00:25 15.8 12.4 68.7 1017.8 1.8 E 3.2 ESE 0.0 5.7 0.2
00:30 15.9 12.3 68.2 1017.9 1.1 SSW 3.1 ESE 0.0 5.7 0.9
00:35 15.9 12.1 68.4 1017.8 2.1 ESE 3.1 ESE 0.0 5.7 0.5
00:40 15.9 12.1 68.8 1017.8 1.6 SSE 3.1 ESE 0.0 5.8 0.4
00:45 15.7 12.0 69.8 1017.8 1.8 SE 3.0 ESE 0.0 5.8 0.9
00:50 15.5 11.9 70.4 1017.8 1.2 SSE 2.1 SE 0.0 5.8 0.7
00:55 15.4 11.8 71.4 1017.8 1.1 SE 2.3 SSE 0.0 5.8 0.7
01:00 15.2 11.7 72.0 1017.9 1.2 ESE 2.0 SE 0.0 5.9 0.8
01:05 15.1 11.5 72.6 1017.9 1.8 SE 3.1 SE 0.0 5.7 1.0
01:10 15.1 11.4 72.7 1017.9 3.0 SE 4.1 SE 0.0 5.9 0.8
01:15 15.0 11.4 73.2 1017.9 1.9 ESE 3.0 ESE 0.0 6.0 0.8
01:20 15.1 11.4 72.7 1017.9 2.9 SE 3.8 SSE 0.0 5.9 1.0
01:25 15.2 11.4 72.2 1017.9 3.4 SE 5.4 SE 0.0 6.0 0.6
01:30 15.5 11.3 70.7 1017.9 2.5 SE 5.1 SE 0.0 6.0 0.6
01:35 15.5 11.3 70.7 1017.9 1.9 ESE 2.7 ESE 0.0 6.0 0.5
01:40 15.6 11.3 70.5 1017.9 3.1 SE 5.9 SSE 0.0 6.1 0.8
01:45 15.8 11.2 70.3 1017.9 3.1 SE 5.8 SSE 0.0 6.1 0.8
01:50 15.9 11.3 70.4 1017.9 2.8 SE 4.6 SE 0.0 6.1 0.7
01:55 15.8 11.3 71.2 1017.9 3.2 ESE 4.8 SE 0.0 6.1 0.7
02:00 15.6 11.4 71.9 1017.9 3.5 E 5.7 E 0.0 6.2 0.4
02:05 15.4 11.5 73.2 1017.9 3.4 ESE 6.3 E 0.0 6.2 0.3
02:10 15.4 11.5 73.5 1017.8 1.1 SE 2.4 ESE 0.0 6.2 0.6
02:15 15.3 11.5 73.7 1017.8 3.3 ENE 5.9 ENE 0.0 6.2 0.7
02:20 15.2 11.6 74.5 1017.8 2.0 E 3.6 E 0.0 6.3 0.2
02:25 15.2 11.6 74.6 1017.8 3.5 ESE 4.6 E 0.0 6.3 0.4
02:30 15.2 11.6 74.9 1017.8 1.8 SSE 4.8 WNW 0.0 6.3 0.2
02:35 15.1 11.6 75.0 1017.9 2.3 W 6.0 WNW 0.0 6.3 0.1
02:40 14.9 11.5 75.6 1018.0 2.0 SW 3.0 W 0.0 6.3 0.1
02:45 14.8 11.4 76.4 1018.0 2.1 SSE 3.9 SSE 0.0 6.4 0.2
02:50 14.7 11.3 76.7 1018.0 2.5 SE 3.7 SE 0.0 6.4 0.4
02:55 14.7 11.2 76.8 1018.0 2.3 SSE 3.5 SE 0.0 6.4 0.2
03:00 14.7 11.0 76.5 1018.0 1.6 SSE 3.3 SSE 0.0 6.5 0.1
03:05 14.6 10.8 77.0 1017.9 1.7 SE 2.7 SE 0.0 6.5 0.1
03:10 14.6 10.6 77.3 1017.9 1.5 SE 4.0 ESE 0.0 6.5 0.6
03:15 14.5 10.5 77.8 1017.9 1.8 SE 3.0 SE 0.0 6.6 0.4
03:20 14.3 10.4 78.7 1017.9 1.1 SSE 2.0 S 0.0 6.6 0.6
03:25 14.1 10.3 79.8 1017.9 2.0 SSE 3.7 SSE 0.0 6.6 0.4
03:30 13.9 10.4 80.9 1018.0 1.9 SE 3.5 SSE 0.0 6.7 0.6
03:35 14.0 10.3 81.2 1018.0 2.1 SE 3.6 SE 0.0 6.7 0.7
03:40 14.0 10.2 81.4 1018.0 2.0 ESE 4.0 E 0.0 6.8 0.6
03:45 14.1 10.1 81.3 1018.0 3.2 E 4.2 E 0.0 6.8 0.4
03:50 14.1 10.1 81.4 1018.0 2.7 ESE 4.4 ESE 0.0 6.8 0.7
03:55 14.1 10.0 80.9 1018.0 1.9 SE 2.8 SE 0.0 6.9 0.6
04:00 13.9 10.1 81.5 1018.0 1.7 ESE 3.1 SE 0.0 6.9 0.6
04:05 14.0 10.0 82.1 1018.0 2.2 ESE 4.7 E 0.0 7.0 0.9
04:10 14.1 10.1 81.6 1018.0 2.5 ESE 4.6 E 0.0 7.0 0.9
04:15 14.1 10.1 81.2 1018.0 2.1 ESE 3.2 ESE 0.0 7.0 0.4
04:20 14.0 10.1 81.5 1018.0 2.6 ESE 4.4 E 0.0 7.1 0.6
04:25 14.1 10.0 81.5 1018.0 2.1 SE 4.0 SE 0.0 7.1 0.5
04:30 14.1 10.0 81.3 1018.0 3.4 E 5.1 ESE 0.0 7.2 0.5
04:35 14.0 10.1 81.9 1018.0 2.3 SE 3.8 ESE 0.0 7.2 0.6
04:40 14.1 10.0 81.6 1018.0 2.4 ESE 3.6 ESE 0.0 7.2 0.5
04:45 14.1 10.0 81.5 1018.0 2.5 ESE 4.9 ESE 0.0 7.3 0.7
04:50 14.0 10.0 81.7 1018.0 2.6 SE 4.9 ESE 0.0 7.3 0.5
04:55 13.9 10.1 82.6 1018.0 3.1 ESE 5.3 E 0.0 7.4 0.6
05:00 13.9 10.2 82.4 1018.0 4.0 SE 6.2 SSE 0.0 7.4 0.7
05:05 13.8 10.5 82.8 1018.1 2.8 ESE 5.6 SE 0.0 7.5 0.8
05:10 13.9 10.5 82.7 1018.1 2.1 ESE 6.0 SE 0.0 7.5 1.4
05:15 13.9 10.5 82.7 1018.1 1.9 SE 3.3 SSE 0.0 7.5 2.5
05:20 13.9 10.4 83.0 1018.2 1.8 SE 2.9 SE 0.0 7.5 4.4
05:25 14.0 10.3 82.8 1018.3 2.1 SE 2.8 SE 0.0 7.6 6.8
05:30 14.0 10.2 82.6 1018.3 1.6 SE 2.7 SE 0.0 7.6 9.4
05:35 13.9 10.2 83.1 1018.4 2.0 ESE 2.8 ESE 0.0 7.6 12.2
05:40 13.9 10.3 83.1 1018.4 1.8 SE 3.0 E 0.0 7.7 14.6
05:45 14.0 10.3 83.1 1018.4 1.8 SE 3.0 SE 0.0 7.7 17.7
05:50 14.0 10.4 83.1 1018.4 2.0 SE 3.7 SE 0.0 7.7 20.5
05:55 14.2 10.6 82.6 1018.5 1.9 SE 3.6 SSE 0.0 7.8 23.3
06:00 14.2 10.8 82.7 1018.5 1.6 SE 2.6 SE 0.0 7.9 25.4
06:05 14.2 11.0 83.1 1018.5 0.9 SE 2.3 SE 0.0 7.9 27.4
06:10 14.1 11.2 83.8 1018.5 0.6 ESE 1.4 SE 0.0 7.8 30.0
06:15 14.2 11.3 84.0 1018.6 1.2 E 2.9 NE 0.0 7.9 32.2
06:20 14.3 11.5 83.7 1018.6 1.0 SSE 1.9 ENE 0.0 8.0 34.5
06:25 14.3 11.7 83.4 1018.7 0.7 SSE 1.3 SSE 0.0 7.9 36.6
06:30 14.4 11.8 83.4 1018.8 0.8 NE 1.6 NNE 0.0 8.0 39.1
06:35 14.9 12.0 81.5 1018.8 0.6 NE 1.4 NE 0.0 8.0 139.9
06:40 15.2 12.2 79.4 1018.8 0.6 ESE 1.8 SSE 0.0 8.0 193.8
06:45 15.4 12.5 78.8 1018.8 2.1 SSE 3.1 SSE 0.0 8.0 208.6
06:50 15.9 12.8 77.1 1018.9 1.7 SSE 2.6 SSE 0.0 8.0 223.8
06:55 16.9 13.5 73.5 1018.9 1.3 S 2.4 SSW 0.0 8.0 238.9
07:00 18.3 14.5 67.3 1018.9 1.8 SSW 3.6 SSW 0.0 8.0 254.5
07:05 19.5 15.2 62.5 1018.9 1.8 SSW 2.3 SSW 0.0 8.0 270.2
07:10 20.6 16.0 58.7 1018.9 0.9 SE 2.6 S 0.0 7.9 284.9
07:15 20.8 17.2 58.0 1019.0 0.8 ENE 2.2 WNW 0.0 7.9 300.2
07:20 21.0 18.0 57.6 1019.0 2.0 W 4.3 WNW 0.0 7.9 315.1
07:25 21.2 18.9 57.7 1019.0 1.1 ESE 2.1 SE 0.0 7.8 330.8
07:30 21.3 20.0 57.3 1019.0 2.1 NNW 5.2 NW 0.0 7.8 346.4
Màxima 21.3 20.0 84.0 1019.0 4.0 SE 6.3 E 0.0 8.0 346.4
Mínima 13.8 10.0 57.3 1017.8 5.6
Total 0.0